Flood From: 22-02-2018 16:00 Until: 23-02-2018 16:00 warning for: Flood Level: Yellow info button

Although rather usual in this region, locally or potentially dangerous phenomena are expected. (such as local winds, summer thunderstorms, rising streams or high waves) Be aware and pay attention to the latest weather updates, especially if you carry out activities exposed to weather or close to a stream or shoreline. 


Meteo18 Weather Cam more information Meteo18 Weather Cam


Thunder radar more information blitzortung!


Rain radar more information rain snow radar


Visit our other weather sites:

Template documentation
and downloads

And another site



Weather Underground History page Text

Daily Summary for May 16, 2017 Units:  English    Metric   Both
« Previous Day
Next Day »
Daily Weekly Monthly Yearly Custom
  High: Low: Average:
Temperature: TemperatureC °F 11.4 °F 19.2 °F
Dew Point: DewpointC °F 9.8 °F 12.5 °F
Humidity: Humidity % 41 % 67 %
Wind Speed: WindSpeedKMH mph 0.0 mph 1.5 mph
Wind Gust: WindSpeedGustKMH mph - -
Wind:- - ESE
Pressure: PressurehPa in 1024.6 in -
Precipitation: 0.0 in    
Historical Graphs
 
 
Tabular Data for May 16, 2017
Time Temperature Dew Point Pressure Wind Wind Speed Wind Gust Humidity Rainfall Rate (Hourly)
TemperatureC °F DewpointC °F PressurehPa in Calm     Humidity % HourlyPrecipMM in
00:07 15.3 °F 11.5 °F 1029.3 in NW 1.6 mph 3.2 mph 78 % 0.0 in
00:12 15.1 °F 11.3 °F 1029.3 in Calm   3.2 mph 78 % 0.0 in
00:17 14.8 °F 11.2 °F 1029.3 in Calm   3.2 mph 79 % 0.0 in
00:27 14.3 °F 11.3 °F 1029.3 in Calm   1.6 mph 82 % 0.0 in
00:32 14.4 °F 11.2 °F 1029.3 in Calm   1.6 mph 81 % 0.0 in
00:37 14.4 °F 11.2 °F 1029.3 in Calm   1.6 mph 81 % 0.0 in
00:42 14.1 °F 11.1 °F 1029.3 in Calm   1.6 mph 82 % 0.0 in
00:52 13.9 °F 11.2 °F 1029.3 in WNW 1.6 mph 3.2 mph 84 % 0.0 in
00:57 14.0 °F 11.2 °F 1029.3 in WNW 1.6 mph 3.2 mph 83 % 0.0 in
01:02 14.2 °F 11.2 °F 1029.3 in Calm   3.2 mph 82 % 0.0 in
01:07 14.4 °F 11.2 °F 1029.3 in Calm   3.2 mph 81 % 0.0 in
01:12 14.6 °F 11.2 °F 1029.3 in Calm   1.6 mph 80 % 0.0 in
01:22 14.4 °F 11.0 °F 1029.3 in Calm     80 % 0.0 in
01:27 14.2 °F 10.8 °F 1029.3 in Calm     80 % 0.0 in
01:32 14.1 °F 10.9 °F 1029.0 in Calm     81 % 0.0 in
01:42 14.0 °F 10.8 °F 1029.0 in Calm     81 % 0.0 in
01:47 13.9 °F 10.7 °F 1029.0 in Calm     81 % 0.0 in
01:52 13.8 °F 10.8 °F 1029.0 in Calm     82 % 0.0 in
01:57 13.6 °F 10.8 °F 1029.0 in Calm     83 % 0.0 in
02:02 13.3 °F 10.8 °F 1029.0 in Calm     85 % 0.0 in
02:12 13.2 °F 10.7 °F 1029.0 in Calm     85 % 0.0 in
02:17 13.3 °F 10.8 °F 1028.7 in Calm     85 % 0.0 in
02:22 13.1 °F 10.6 °F 1029.0 in Calm     85 % 0.0 in
02:32 12.7 °F 10.6 °F 1029.0 in Calm     87 % 0.0 in
02:37 12.7 °F 10.8 °F 1029.0 in Calm     88 % 0.0 in
02:42 12.9 °F 10.6 °F 1028.7 in Calm     86 % 0.0 in
02:47 12.8 °F 10.7 °F 1028.7 in Calm     87 % 0.0 in
02:52 12.9 °F 10.8 °F 1028.7 in Calm     87 % 0.0 in
02:57 13.3 °F 10.8 °F 1028.7 in Calm     85 % 0.0 in
03:02 13.4 °F 10.8 °F 1028.7 in Calm     84 % 0.0 in
03:12 13.2 °F 10.4 °F 1028.7 in Calm     83 % 0.0 in
03:17 13.1 °F 10.5 °F 1028.7 in Calm     84 % 0.0 in
03:22 13.1 °F 10.5 °F 1028.7 in Calm     84 % 0.0 in
03:32 13.0 °F 10.4 °F 1028.7 in Calm     84 % 0.0 in
03:37 13.0 °F 10.5 °F 1028.7 in Calm     85 % 0.0 in
03:42 13.2 °F 10.6 °F 1028.7 in Calm     84 % 0.0 in
03:47 13.3 °F 10.5 °F 1028.7 in Calm     83 % 0.0 in
03:52 13.1 °F 10.3 °F 1028.7 in Calm     83 % 0.0 in
03:57 13.0 °F 10.5 °F 1028.7 in Calm     85 % 0.0 in
04:02 13.2 °F 10.7 °F 1028.7 in Calm     85 % 0.0 in
04:07 13.2 °F 10.4 °F 1028.7 in Calm     83 % 0.0 in
04:12 13.0 °F 10.2 °F 1028.3 in Calm     83 % 0.0 in
04:17 12.7 °F 10.1 °F 1028.3 in Calm     84 % 0.0 in
04:22 12.5 °F 10.0 °F 1028.3 in Calm     85 % 0.0 in
04:32 12.6 °F 10.3 °F 1028.3 in Calm     86 % 0.0 in
04:37 12.6 °F 10.3 °F 1028.3 in Calm     86 % 0.0 in
04:42 12.4 °F 9.9 °F 1028.3 in Calm     85 % 0.0 in
04:47 12.2 °F 10.3 °F 1028.7 in Calm     88 % 0.0 in
04:52 12.2 °F 10.3 °F 1028.7 in Calm     88 % 0.0 in
04:57 12.2 °F 10.1 °F 1028.7 in Calm     87 % 0.0 in
05:02 12.0 °F 9.9 °F 1028.3 in Calm     87 % 0.0 in
05:12 11.7 °F 9.9 °F 1028.3 in Calm     89 % 0.0 in
05:17 11.8 °F 10.2 °F 1028.3 in Calm     90 % 0.0 in
05:22 11.8 °F 10.0 °F 1028.3 in Calm     89 % 0.0 in
05:27 11.7 °F 10.1 °F 1028.3 in Calm     90 % 0.0 in
05:32 11.6 °F 10.0 °F 1028.3 in Calm     90 % 0.0 in
05:42 11.8 °F 10.0 °F 1028.3 in Calm     89 % 0.0 in
05:47 11.7 °F 10.1 °F 1028.3 in Calm     90 % 0.0 in
05:52 11.7 °F 10.1 °F 1028.3 in Calm     90 % 0.0 in
05:57 11.6 °F 10.0 °F 1028.7 in Calm     90 % 0.0 in
06:02 11.4 °F 9.8 °F 1028.7 in Calm     90 % 0.0 in
06:07 11.5 °F 10.1 °F 1028.7 in Calm     91 % 0.0 in
06:12 11.6 °F 10.2 °F 1028.7 in Calm     91 % 0.0 in
06:17 11.7 °F 10.3 °F 1028.7 in Calm     91 % 0.0 in
06:22 11.8 °F 10.2 °F 1028.7 in Calm     90 % 0.0 in
06:27 11.8 °F 10.2 °F 1028.7 in Calm     90 % 0.0 in
06:32 11.8 °F 10.2 °F 1028.7 in Calm     90 % 0.0 in
06:37 12.1 °F 10.5 °F 1028.7 in Calm     90 % 0.0 in
06:42 12.2 °F 10.6 °F 1028.7 in Calm     90 % 0.0 in
06:47 12.4 °F 10.6 °F 1028.7 in Calm     89 % 0.0 in
06:52 12.7 °F 10.8 °F 1028.7 in Calm     88 % 0.0 in
06:57 13.1 °F 11.2 °F 1028.7 in Calm     88 % 0.0 in
07:02 13.1 °F 11.0 °F 1028.7 in Calm     87 % 0.0 in
07:12 12.9 °F 11.0 °F 1028.7 in Calm     88 % 0.0 in
07:17 12.8 °F 10.9 °F 1028.7 in Calm     88 % 0.0 in
07:27 12.7 °F 10.9 °F 1028.7 in Calm     89 % 0.0 in
07:32 12.7 °F 10.9 °F 1028.7 in Calm     89 % 0.0 in
07:42 13.0 °F 11.2 °F 1028.7 in Calm     89 % 0.0 in
07:47 13.1 °F 11.2 °F 1028.7 in Calm     88 % 0.0 in
07:52 13.2 °F 11.3 °F 1028.7 in Calm     88 % 0.0 in
07:57 13.3 °F 11.4 °F 1028.7 in Calm     88 % 0.0 in
08:02 13.4 °F 11.6 °F 1028.7 in Calm     89 % 0.0 in
08:12 13.7 °F 11.9 °F 1028.7 in Calm     89 % 0.0 in
08:17 13.8 °F 12.0 °F 1028.7 in Calm     89 % 0.0 in
08:22 13.9 °F 12.1 °F 1028.7 in Calm     89 % 0.0 in
08:32 14.4 °F 12.6 °F 1028.7 in Calm     89 % 0.0 in
08:37 14.8 °F 13.0 °F 1028.7 in Calm     89 % 0.0 in
08:42 15.0 °F 13.2 °F 1028.7 in Calm     89 % 0.0 in
08:52 15.7 °F 14.1 °F 1028.7 in Calm     90 % 0.0 in
08:57 16.1 °F 14.5 °F 1028.7 in Calm     90 % 0.0 in
09:02 16.3 °F 14.3 °F 1028.7 in Calm     88 % 0.0 in
09:07 16.3 °F 13.4 °F 1028.7 in Calm     83 % 0.0 in
09:12 16.4 °F 12.6 °F 1028.7 in Calm     78 % 0.0 in
09:17 16.9 °F 12.8 °F 1029.0 in Calm     77 % 0.0 in
09:27 17.5 °F 12.8 °F 1028.7 in Calm     74 % 0.0 in
09:32 17.8 °F 13.3 °F 1029.0 in Calm     75 % 0.0 in
09:42 17.9 °F 13.4 °F 1029.0 in Calm     75 % 0.0 in
09:47 18.0 °F 13.5 °F 1029.0 in Calm     75 % 0.0 in
09:52 17.9 °F 13.2 °F 1029.0 in Calm     74 % 0.0 in
09:57 17.8 °F 13.1 °F 1028.7 in South 1.6 mph   74 % 0.0 in
10:02 18.1 °F 13.8 °F 1028.7 in Calm   3.2 mph 76 % 0.0 in
10:12 18.9 °F 14.0 °F 1028.7 in Calm   3.2 mph 73 % 0.0 in
10:17 19.2 °F 13.4 °F 1028.7 in South 1.6 mph 3.2 mph 69 % 0.0 in
10:22 19.6 °F 13.8 °F 1028.7 in South 3.2 mph 3.2 mph 69 % 0.0 in
10:32 19.9 °F 13.6 °F 1028.7 in South 1.6 mph 3.2 mph 67 % 0.0 in
10:42 20.3 °F 13.3 °F 1028.7 in Calm   3.2 mph 64 % 0.0 in
10:47 20.3 °F 13.7 °F 1029.0 in South 1.6 mph 3.2 mph 66 % 0.0 in
10:57 20.7 °F 12.9 °F 1029.0 in SSW 3.2 mph 4.8 mph 61 % 0.0 in
11:02 21.1 °F 13.3 °F 1028.7 in SW 1.6 mph 4.8 mph 61 % 0.0 in
11:12 21.5 °F 13.4 °F 1028.7 in Calm   4.8 mph 60 % 0.0 in
11:17 21.8 °F 13.2 °F 1028.7 in Calm   4.8 mph 58 % 0.0 in
11:22 21.9 °F 13.0 °F 1028.7 in SSE 4.8 mph 4.8 mph 57 % 0.0 in
11:27 22.1 °F 13.2 °F 1028.7 in Calm   6.4 mph 57 % 0.0 in
11:32 22.4 °F 13.2 °F 1028.7 in South 1.6 mph 8.0 mph 56 % 0.0 in
11:37 22.3 °F 13.4 °F 1028.7 in Calm   8.0 mph 57 % 0.0 in
11:42 22.6 °F 13.6 °F 1028.7 in SSE 1.6 mph 8.0 mph 57 % 0.0 in
11:52 22.6 °F 13.1 °F 1028.3 in SSE 4.8 mph 6.4 mph 55 % 0.0 in
12:02 22.8 °F 13.0 °F 1028.3 in SE 1.6 mph 6.4 mph 54 % 0.0 in
12:12 22.8 °F 12.7 °F 1028.3 in SE 3.2 mph 6.4 mph 53 % 0.0 in
12:22 22.9 °F 12.8 °F 1028.3 in ESE 3.2 mph 8.0 mph 53 % 0.0 in
12:27 22.9 °F 12.5 °F 1028.3 in SE 3.2 mph 8.0 mph 52 % 0.0 in
12:32 22.9 °F 12.5 °F 1028.3 in Calm   8.0 mph 52 % 0.0 in
12:37 23.5 °F 14.2 °F 1028.0 in SE 4.8 mph 8.0 mph 56 % 0.0 in
12:42 23.4 °F 13.3 °F 1028.0 in East 8.0 mph 8.0 mph 53 % 0.0 in
12:47 23.3 °F 12.9 °F 1028.0 in East 3.2 mph 14.5 mph 52 % 0.0 in
12:52 23.3 °F 12.9 °F 1028.0 in East 4.8 mph 14.5 mph 52 % 0.0 in
12:57 23.3 °F 13.2 °F 1028.0 in East 4.8 mph 14.5 mph 53 % 0.0 in
13:02 22.8 °F 12.7 °F 1027.7 in ESE 3.2 mph 11.3 mph 53 % 0.0 in
13:12 23.0 °F 13.7 °F 1027.7 in ESE 1.6 mph 11.3 mph 56 % 0.0 in
13:17 22.9 °F 12.8 °F 1027.7 in East 4.8 mph 9.7 mph 53 % 0.0 in
13:22 22.9 °F 13.1 °F 1027.7 in East 3.2 mph 9.7 mph 54 % 0.0 in
13:32 23.2 °F 13.4 °F 1027.7 in East 3.2 mph 9.7 mph 54 % 0.0 in
13:37 23.8 °F 13.6 °F 1027.3 in ESE 8.0 mph 9.7 mph 53 % 0.0 in
13:42 24.0 °F 13.8 °F 1027.3 in East 4.8 mph 11.3 mph 53 % 0.0 in
13:52 23.9 °F 14.0 °F 1027.3 in ENE 6.4 mph 11.3 mph 54 % 0.0 in
13:57 24.1 °F 13.9 °F 1027.0 in North 4.8 mph 9.7 mph 53 % 0.0 in
14:02 24.4 °F 13.6 °F 1027.0 in Calm   9.7 mph 51 % 0.0 in
14:12 24.7 °F 13.9 °F 1027.0 in NNE 4.8 mph 11.3 mph 51 % 0.0 in
14:17 24.3 °F 13.5 °F 1027.0 in NNE 3.2 mph 11.3 mph 51 % 0.0 in
14:22 24.5 °F 13.7 °F 1027.0 in Calm   12.9 mph 51 % 0.0 in
14:27 24.6 °F 13.8 °F 1027.0 in Calm   12.9 mph 51 % 0.0 in
14:32 25.2 °F 14.3 °F 1027.0 in ESE 3.2 mph 12.9 mph 51 % 0.0 in
14:42 25.4 °F 14.2 °F 1026.6 in ESE 6.4 mph 14.5 mph 50 % 0.0 in
14:47 25.5 °F 14.0 °F 1026.6 in SE 6.4 mph 14.5 mph 49 % 0.0 in
14:52 25.6 °F 14.1 °F 1026.6 in SW 4.8 mph 14.5 mph 49 % 0.0 in
14:57 25.7 °F 14.2 °F 1026.6 in SSW 6.4 mph 14.5 mph 49 % 0.0 in
15:02 25.8 °F 14.0 °F 1026.6 in SSW 6.4 mph 14.5 mph 48 % 0.0 in
15:07 25.9 °F 14.0 °F 1026.6 in WSW 3.2 mph 14.5 mph 48 % 0.0 in
15:12 25.8 °F 13.0 °F 1026.6 in Calm   14.5 mph 45 % 0.0 in
15:17 26.1 °F 13.6 °F 1026.6 in SSW 3.2 mph 9.7 mph 46 % 0.0 in
15:22 26.1 °F 13.9 °F 1026.6 in SSW 4.8 mph 9.7 mph 47 % 0.0 in
15:32 26.0 °F 13.5 °F 1026.6 in Calm   9.7 mph 46 % 0.0 in
15:37 25.7 °F 13.5 °F 1026.6 in ESE 6.4 mph 8.0 mph 47 % 0.0 in
15:42 26.0 °F 13.5 °F 1026.3 in South 1.6 mph 8.0 mph 46 % 0.0 in
15:47 26.2 °F 14.0 °F 1026.3 in ESE 3.2 mph 8.0 mph 47 % 0.0 in
15:52 26.1 °F 13.2 °F 1026.3 in East 1.6 mph 8.0 mph 45 % 0.0 in
16:02 26.3 °F 13.1 °F 1026.3 in ENE 1.6 mph 6.4 mph 44 % 0.0 in
16:12 25.8 °F 13.0 °F 1026.3 in WSW 3.2 mph 8.0 mph 45 % 0.0 in
16:17 25.6 °F 13.1 °F 1026.0 in Calm   8.0 mph 46 % 0.0 in
16:22 25.9 °F 13.7 °F 1026.0 in Calm   9.7 mph 47 % 0.0 in
16:27 26.3 °F 13.8 °F 1026.0 in Calm   9.7 mph 46 % 0.0 in
16:32 26.3 °F 13.8 °F 1026.0 in SSE 6.4 mph 6.4 mph 46 % 0.0 in
16:37 26.3 °F 13.4 °F 1026.0 in SE 3.2 mph 6.4 mph 45 % 0.0 in
16:42 26.4 °F 13.8 °F 1026.0 in East 1.6 mph 6.4 mph 46 % 0.0 in
16:47 26.6 °F 13.3 °F 1026.0 in Calm   6.4 mph 44 % 0.0 in
16:57 26.7 °F 13.8 °F 1026.0 in Calm   4.8 mph 45 % 0.0 in
17:02 26.3 °F 12.7 °F 1026.0 in NNE 1.6 mph 3.2 mph 43 % 0.0 in
17:12 26.4 °F 13.5 °F 1025.6 in Calm   4.8 mph 45 % 0.0 in
17:17 26.2 °F 13.7 °F 1025.6 in East 4.8 mph 4.8 mph 46 % 0.0 in
17:22 26.2 °F 13.7 °F 1025.6 in Calm   6.4 mph 46 % 0.0 in
17:27 26.8 °F 13.5 °F 1025.6 in NNE 3.2 mph 6.4 mph 44 % 0.0 in
17:32 26.6 °F 13.3 °F 1025.6 in Calm   6.4 mph 44 % 0.0 in
17:42 26.6 °F 13.0 °F 1025.6 in NNE 3.2 mph 4.8 mph 43 % 0.0 in
17:47 26.6 °F 13.3 °F 1025.6 in Calm   4.8 mph 44 % 0.0 in
17:52 26.7 °F 13.4 °F 1025.6 in Calm   3.2 mph 44 % 0.0 in
17:57 27.5 °F 13.8 °F 1025.6 in Calm   3.2 mph 43 % 0.0 in
18:02 27.3 °F 14.0 °F 1025.6 in Calm   4.8 mph 44 % 0.0 in
18:12 26.9 °F 14.6 °F 1025.3 in NE 4.8 mph 4.8 mph 47 % 0.0 in
18:17 26.3 °F 13.4 °F 1025.3 in ENE 1.6 mph 4.8 mph 45 % 0.0 in
18:22 26.7 °F 13.4 °F 1025.3 in Calm   8.0 mph 44 % 0.0 in
18:27 26.9 °F 12.5 °F 1025.3 in Calm   8.0 mph 41 % 0.0 in
18:32 27.1 °F 13.4 °F 1025.3 in Calm   8.0 mph 43 % 0.0 in
18:37 26.6 °F 13.3 °F 1025.3 in East 1.6 mph 3.2 mph 44 % 0.0 in
18:42 26.7 °F 13.4 °F 1024.9 in Calm   6.4 mph 44 % 0.0 in
18:52 26.3 °F 14.1 °F 1024.9 in Calm   6.4 mph 47 % 0.0 in
18:57 26.1 °F 13.2 °F 1024.9 in ENE 3.2 mph 6.4 mph 45 % 0.0 in
19:02 25.7 °F 13.2 °F 1024.9 in NE 3.2 mph 6.4 mph 46 % 0.0 in
19:07 25.4 °F 12.9 °F 1024.9 in ENE 3.2 mph 8.0 mph 46 % 0.0 in
19:12 25.2 °F 12.8 °F 1024.9 in ENE 3.2 mph 8.0 mph 46 % 0.0 in
19:17 25.3 °F 13.2 °F 1024.9 in Calm   6.4 mph 47 % 0.0 in
19:22 25.4 °F 13.6 °F 1024.9 in ENE 1.6 mph 4.8 mph 48 % 0.0 in
19:32 25.5 °F 14.3 °F 1024.9 in Calm   4.8 mph 50 % 0.0 in
19:42 25.4 °F 14.5 °F 1024.9 in NNE 3.2 mph 4.8 mph 51 % 0.0 in
19:47 25.3 °F 14.4 °F 1024.9 in NE 4.8 mph 9.7 mph 51 % 0.0 in
19:52 25.2 °F 14.9 °F 1024.9 in ENE 4.8 mph 9.7 mph 53 % 0.0 in
19:57 25.1 °F 14.6 °F 1024.9 in NE 4.8 mph 8.0 mph 52 % 0.0 in
20:02 25.1 °F 14.3 °F 1024.9 in NE 3.2 mph 8.0 mph 51 % 0.0 in
20:07 25.0 °F 14.2 °F 1024.9 in NE 3.2 mph 8.0 mph 51 % 0.0 in
20:12 25.0 °F 14.5 °F 1024.9 in NE 4.8 mph 8.0 mph 52 % 0.0 in
20:17 24.9 °F 14.7 °F 1024.9 in NE 3.2 mph 8.0 mph 53 % 0.0 in
20:22 24.7 °F 14.8 °F 1024.6 in NE 3.2 mph 6.4 mph 54 % 0.0 in
20:27 24.5 °F 14.9 °F 1024.9 in NE 3.2 mph 6.4 mph 55 % 0.0 in
20:32 24.2 °F 14.9 °F 1024.9 in ENE 3.2 mph 6.4 mph 56 % 0.0 in
20:37 23.8 °F 14.8 °F 1024.9 in NE 3.2 mph 6.4 mph 57 % 0.0 in
20:42 23.6 °F 14.6 °F 1024.9 in NE 3.2 mph 6.4 mph 57 % 0.0 in
20:47 23.3 °F 14.3 °F 1024.9 in NE 3.2 mph 6.4 mph 57 % 0.0 in
20:57 23.1 °F 14.1 °F 1024.9 in NNE 4.8 mph 6.4 mph 57 % 0.0 in
21:02 22.9 °F 14.2 °F 1024.9 in NE 3.2 mph 6.4 mph 58 % 0.0 in
21:12 22.5 °F 14.1 °F 1024.9 in NE 4.8 mph 6.4 mph 59 % 0.0 in
21:17 22.3 °F 13.9 °F 1024.9 in NE 4.8 mph 6.4 mph 59 % 0.0 in
21:22 22.2 °F 13.8 °F 1024.9 in NE 4.8 mph 6.4 mph 59 % 0.0 in
21:27 22.1 °F 14.0 °F 1024.9 in NNE 4.8 mph 6.4 mph 60 % 0.0 in
21:32 21.7 °F 13.8 °F 1024.9 in Calm   6.4 mph 61 % 0.0 in
21:37 21.3 °F 14.0 °F 1024.9 in North 1.6 mph 6.4 mph 63 % 0.0 in
21:42 21.0 °F 13.9 °F 1024.9 in Calm   4.8 mph 64 % 0.0 in
21:47 20.8 °F 14.0 °F 1024.9 in North 1.6 mph 3.2 mph 65 % 0.0 in
21:52 20.6 °F 14.0 °F 1024.9 in NNW 1.6 mph 3.2 mph 66 % 0.0 in
21:57 20.4 °F 13.8 °F 1024.9 in Calm   3.2 mph 66 % 0.0 in
22:02 20.1 °F 13.8 °F 1024.9 in Calm   1.6 mph 67 % 0.0 in
22:12 19.8 °F 13.5 °F 1024.9 in Calm   1.6 mph 67 % 0.0 in
22:17 19.8 °F 13.5 °F 1024.9 in Calm     67 % 0.0 in
22:22 19.6 °F 13.5 °F 1024.9 in Calm     68 % 0.0 in
22:27 19.3 °F 13.5 °F 1024.9 in NNE 1.6 mph   69 % 0.0 in
22:32 19.1 °F 13.3 °F 1024.9 in NE 6.4 mph 6.4 mph 69 % 0.0 in
22:37 19.4 °F 13.3 °F 1024.9 in NE 6.4 mph 8.0 mph 68 % 0.0 in
22:42 19.6 °F 13.3 °F 1024.9 in NE 8.0 mph 8.0 mph 67 % 0.0 in
22:47 19.6 °F 13.3 °F 1024.9 in NNE 8.0 mph 8.0 mph 67 % 0.0 in
22:52 19.7 °F 13.2 °F 1024.9 in NE 4.8 mph 9.7 mph 66 % 0.0 in
22:57 19.5 °F 13.2 °F 1024.9 in NNE 1.6 mph 9.7 mph 67 % 0.0 in
23:02 19.0 °F 13.0 °F 1024.9 in WNW 4.8 mph 9.7 mph 68 % 0.0 in
23:12 17.3 °F 13.0 °F 1024.9 in WNW 3.2 mph 4.8 mph 76 % 0.0 in
23:17 17.5 °F 13.2 °F 1024.9 in Calm   4.8 mph 76 % 0.0 in
23:22 17.8 °F 13.1 °F 1024.9 in WNW 1.6 mph 4.8 mph 74 % 0.0 in
23:27 17.4 °F 13.1 °F 1024.9 in WNW 1.6 mph 3.2 mph 76 % 0.0 in
23:32 17.2 °F 13.1 °F 1024.9 in Calm   3.2 mph 77 % 0.0 in
23:37 17.5 °F 13.0 °F 1024.9 in NNW 1.6 mph 3.2 mph 75 % 0.0 in
23:42 17.8 °F 13.1 °F 1024.9 in Calm   3.2 mph 74 % 0.0 in
23:47 17.7 °F 13.0 °F 1024.9 in Calm   3.2 mph 74 % 0.0 in
23:52 17.6 °F 12.9 °F 1024.9 in Calm   3.2 mph 74 % 0.0 in
23:57 17.6 °F 12.9 °F 1024.6 in Calm   3.2 mph 74 % 0.0 in
Meteo18
Compliments of Weather Underground - 4 mb

Script developed by  Jim McMurry - jmcmurry@mwt.net Adapted for the template by  Wim van der Kuil - Leuven-Template.eu

You find our weather info also at:

European Weather Network

Weather Underground

Equipment we use:

Weather-station
Davis Vue

Weather-program
Meteobridge

Weather-server
Raspberry PI 2 B+

Provider
1 and 1

Davis Vue

Meteobridge

Raspberry PI 2 B+

1 and 1